Time;durP1;ratioP1;P1;durP2;ratioP2;P2;SDS_P1;SDS_P2;PMS_P1;PMS_P2;Temp;Humidity;BMP_temperature;BMP_pressure;BME280_temperature;BME280_humidity;BME280_pressure;Samples;Min_cycle;Max_cycle;Signal;HPM_P1;HPM_P2
2022/09/04 00:00:10;;;;;;;8.43;1.70;;;;;;;21.35;65.53;101058.81;5122313;28;20309;-65
2022/09/04 00:03:25;;;;;;;9.23;1.30;;;;;;;21.36;64.62;101041.06;5104926;28;20298;-65
2022/09/04 00:06:04;;;;;;;9.57;1.90;;;;;;;21.49;65.17;101050.16;5106282;28;20298;-66
2022/09/04 00:09:02;;;;;;;;;;;;;;;21.62;64.56;101058.44;5113674;28;20352;-66
2022/09/04 00:11:54;;;;;;;4.10;1.20;;;;;;;21.71;63.91;101049.97;5002880;28;20190;-66
2022/09/04 00:14:45;;;;;;;12.40;1.53;;;;;;;21.84;62.71;101060.84;5018492;28;20308;-66
2022/09/04 00:17:31;;;;;;;13.80;1.90;;;;;;;21.90;62.84;101045.44;5019757;28;20451;-64
2022/09/04 00:20:39;;;;;;;7.20;1.60;;;;;;;21.90;62.38;101024.16;5019262;28;20071;-66
2022/09/04 00:23:31;;;;;;;14.05;1.75;;;;;;;22.14;62.42;101047.75;5019809;28;20293;-66
2022/09/04 00:26:19;;;;;;;4.30;1.17;;;;;;;22.20;61.45;101049.31;5019633;28;20085;-66
2022/09/04 00:29:05;;;;;;;9.50;1.27;;;;;;;21.98;59.15;100998.00;5019262;28;20335;-67
2022/09/04 00:31:57;;;;;;;6.47;1.20;;;;;;;22.47;59.95;101044.31;5019308;28;20285;-66
2022/09/04 00:34:54;;;;;;;9.03;2.00;;;;;;;22.40;59.44;101017.16;5019512;28;20285;-65
2022/09/04 00:37:32;;;;;;;;;;;;;;;22.67;59.44;101046.75;5016685;28;20269;-67
2022/09/04 00:40:26;;;;;;;4.40;1.23;;;;;;;22.60;59.27;101013.41;5019373;28;19937;-66
2022/09/04 00:43:23;;;;;;;17.00;1.97;;;;;;;22.92;59.48;101050.75;5019243;28;20053;-66
2022/09/04 00:46:25;;;;;;;7.80;1.10;;;;;;;22.97;59.67;101038.91;5017076;28;20050;-66
2022/09/04 00:49:45;;;;;;;10.27;1.57;;;;;;;23.13;57.96;101038.88;5080442;28;20040;-66
2022/09/04 00:52:36;;;;;;;4.33;1.37;;;;;;;23.27;55.88;101039.94;5078836;28;20135;-67
2022/09/04 00:55:52;;;;;;;3.13;1.13;;;;;;;23.25;56.48;101024.88;5067554;28;20048;-65
2022/09/04 00:58:53;;;;;;;4.10;1.30;;;;;;;23.38;54.63;101032.16;5047740;28;20128;-66
2022/09/04 01:01:38;;;;;;;10.67;1.40;;;;;;;23.50;55.44;101026.13;5081021;28;20533;-66
2022/09/04 01:04:44;;;;;;;3.67;1.37;;;;;;;23.44;54.57;100994.47;5080658;28;20079;-66
2022/09/04 01:07:47;;;;;;;7.27;1.30;;;;;;;23.75;54.91;101014.88;5080575;28;20083;-66
2022/09/04 01:10:57;;;;;;;5.27;1.40;;;;;;;23.52;53.80;100970.88;5080701;28;20108;-66
2022/09/04 01:16:39;;;;;;;9.20;2.00;;;;;;;23.97;52.45;101002.94;5080682;28;20044;-67
2022/09/04 01:19:46;;;;;;;5.60;1.40;;;;;;;23.90;51.66;100997.09;5079919;28;20059;-67
2022/09/04 01:22:53;;;;;;;3.70;1.27;;;;;;;23.97;51.46;101003.78;5084267;28;20052;-66
2022/09/04 01:26:05;;;;;;;8.53;1.60;;;;;;;24.04;52.05;100988.25;5082523;28;20044;-66
2022/09/04 01:29:30;;;;;;;8.87;1.53;;;;;;;24.09;51.00;100997.69;5085014;28;20052;-66
2022/09/04 01:32:19;;;;;;;7.53;1.50;;;;;;;24.25;51.42;101002.09;5084328;28;20048;-67
2022/09/04 01:35:05;;;;;;;6.97;1.50;;;;;;;24.27;50.26;101005.53;5067518;28;20102;-67
2022/09/04 01:38:01;;;;;;;11.67;1.63;;;;;;;24.37;50.07;101000.47;5084323;28;20052;-66
2022/09/04 01:40:48;;;;;;;6.20;1.30;;;;;;;24.38;49.33;100992.34;5095712;28;20123;-67
2022/09/04 01:43:33;;;;;;;12.70;1.35;;;;;;;24.39;47.64;100990.53;5125143;28;20050;-66
2022/09/04 01:46:44;;;;;;;2.05;1.10;;;;;;;24.42;48.60;100999.22;5124612;28;20058;-66
2022/09/04 01:49:32;;;;;;;4.87;1.10;;;;;;;24.61;49.00;100998.97;5124882;27;20043;-66
2022/09/04 01:52:35;;;;;;;35.20;5.93;;;;;;;24.41;48.98;100935.22;5122766;28;20111;-67
2022/09/04 01:55:25;;;;;;;29.50;8.77;;;;;;;24.82;47.48;100991.38;5124819;28;20054;-66
2022/09/04 01:58:22;;;;;;;12.00;6.57;;;;;;;24.93;47.60;100982.66;5083903;28;20039;-66
2022/09/04 02:04:10;;;;;;;10.10;2.30;;;;;;;24.94;46.92;100963.84;5115092;28;20039;-66
2022/09/04 02:07:15;;;;;;;20.77;1.87;;;;;;;25.10;46.00;100968.19;5125163;28;20044;-66
2022/09/04 02:09:58;;;;;;;9.30;1.30;;;;;;;25.16;47.55;100967.75;5123055;28;20048;-67
2022/09/04 02:12:52;;;;;;;3.73;1.20;;;;;;;25.25;45.78;100972.53;5124679;28;20131;-67
2022/09/04 02:15:44;;;;;;;8.18;3.75;;;;;;;25.06;42.96;100970.22;5123941;28;20039;-67
2022/09/04 02:18:36;;;;;;;11.43;5.37;;;;;;;25.02;44.12;100975.88;5103509;28;20071;-67
2022/09/04 02:21:33;;;;;;;8.47;2.47;;;;;;;25.10;41.91;100978.88;5123904;28;20055;-67
2022/09/04 02:27:34;;;;;;;4.47;1.40;;;;;;;25.36;41.13;100975.38;5124034;28;20051;-67
2022/09/04 02:30:17;;;;;;;3.58;1.50;;;;;;;25.47;45.09;100968.44;5124234;28;20059;-67
2022/09/04 02:33:24;;;;;;;12.57;2.17;;;;;;;25.49;44.07;100969.19;5121924;28;20101;-66
2022/09/04 02:36:14;;;;;;;2.37;1.30;;;;;;;25.49;45.00;100963.84;5123779;28;20115;-66
2022/09/04 02:42:18;;;;;;;8.40;3.40;;;;;;;25.52;45.03;100963.63;5124380;28;20070;-66
2022/09/04 02:45:11;;;;;;;7.17;3.93;;;;;;;25.29;44.95;100907.19;5105287;28;20178;-66
2022/09/04 02:47:55;;;;;;;6.20;1.90;;;;;;;25.65;43.52;100961.81;5122689;28;20118;-67
2022/09/04 02:50:59;;;;;;;2.88;1.52;;;;;;;25.72;44.19;100960.44;5123108;28;20137;-67
2022/09/04 02:54:17;;;;;;;8.10;2.20;;;;;;;25.80;44.46;100966.13;5123679;28;20044;-66
2022/09/04 02:57:10;;;;;;;11.60;1.83;;;;;;;25.92;43.73;100960.91;5106428;28;20066;-65
2022/09/04 03:00:13;;;;;;;9.77;1.73;;;;;;;25.99;43.73;100967.56;5122594;28;20086;-66
2022/09/04 03:03:03;;;;;;;4.10;1.30;;;;;;;26.04;41.96;100960.06;5123450;28;20058;-66
2022/09/04 03:05:55;;;;;;;6.40;1.43;;;;;;;26.11;40.78;100961.34;5122558;28;20355;-66
2022/09/04 03:08:42;;;;;;;3.17;1.20;;;;;;;26.01;41.62;100938.88;5121190;28;20047;-66
2022/09/04 03:11:45;;;;;;;10.75;1.58;;;;;;;26.20;42.75;100955.31;5095850;28;20085;-66
2022/09/04 03:14:33;;;;;;;10.60;1.80;;;;;;;26.14;42.22;100958.44;5122994;28;20058;-68
2022/09/04 03:17:22;;;;;;;7.90;1.33;;;;;;;26.09;42.56;100947.22;5113513;28;20059;-67
2022/09/04 03:20:16;;;;;;;5.73;2.00;;;;;;;26.22;43.88;100953.41;5122897;28;20047;-67
2022/09/04 03:22:59;;;;;;;3.63;2.30;;;;;;;26.31;42.11;100959.06;5095476;28;20059;-67
2022/09/04 03:26:09;;;;;;;12.53;2.60;;;;;;;26.39;40.99;100956.69;5122892;28;20044;-67
2022/09/04 03:29:36;;;;;;;19.40;2.60;;;;;;;26.38;39.75;100961.19;5123361;28;20089;-67
2022/09/04 03:32:32;;;;;;;65.40;5.83;;;;;;;26.46;40.60;100949.94;5123309;28;20859;-67
2022/09/04 03:35:18;;;;;;;9.10;2.17;;;;;;;26.52;42.65;100944.13;5122744;28;20051;-67
2022/09/04 03:38:22;;;;;;;4.27;2.07;;;;;;;26.45;42.54;100937.50;5123028;28;20048;-67
2022/09/04 03:41:11;;;;;;;4.80;1.98;;;;;;;26.58;42.28;100932.13;5122699;28;20090;-67
2022/09/04 03:44:13;;;;;;;5.07;1.67;;;;;;;26.56;40.75;100931.38;5122287;28;20055;-67
2022/09/04 03:47:06;;;;;;;7.50;1.73;;;;;;;26.60;41.47;100923.00;5088870;28;20123;-67
2022/09/04 03:50:04;;;;;;;11.00;2.40;;;;;;;26.70;42.91;100927.69;5122765;28;20043;-67
2022/09/04 03:53:01;;;;;;;3.37;1.43;;;;;;;26.74;42.31;100926.50;5122530;28;20051;-67
2022/09/04 03:56:04;;;;;;;11.57;2.70;;;;;;;26.81;43.21;100927.75;5122402;28;20081;-67
2022/09/04 03:59:02;;;;;;;8.80;2.97;;;;;;;26.88;42.11;100929.00;5121564;28;20059;-67
2022/09/04 04:02:11;;;;;;;7.17;1.70;;;;;;;26.83;42.57;100925.81;5122040;28;20051;-66
2022/09/04 04:05:20;;;;;;;4.38;1.98;;;;;;;26.75;41.70;100921.00;5122401;28;20052;-68
2022/09/04 04:08:50;;;;;;;3.58;1.75;;;;;;;26.79;40.90;100914.47;5109575;28;20065;-67
2022/09/04 04:11:56;;;;;;;15.77;1.80;;;;;;;26.51;40.43;100862.03;5122510;28;20132;-67
2022/09/04 04:14:52;;;;;;;2.40;1.23;;;;;;;26.72;41.17;100885.56;5088096;28;20078;-67
2022/09/04 04:17:50;;;;;;;6.82;1.98;;;;;;;26.85;39.89;100918.50;5079107;28;20039;-66
2022/09/04 04:20:38;;;;;;;20.17;4.80;;;;;;;26.90;41.87;100913.66;5122165;28;20055;-66
2022/09/04 04:23:48;;;;;;;6.43;3.70;;;;;;;26.89;41.24;100911.97;5122343;28;20268;-66
2022/09/04 04:26:40;;;;;;;4.30;2.70;;;;;;;26.89;41.68;100911.97;5122236;28;20058;-67
2022/09/04 04:30:01;;;;;;;4.33;1.93;;;;;;;26.82;40.57;100905.34;5122120;28;20054;-66
2022/09/04 04:33:19;;;;;;;5.27;1.70;;;;;;;26.84;40.76;100906.94;5121241;28;20122;-68
2022/09/04 04:36:16;;;;;;;5.53;1.70;;;;;;;26.88;41.07;100902.19;5121830;28;20051;-67
2022/09/04 04:39:16;;;;;;;4.93;2.10;;;;;;;26.94;43.04;100901.75;5121884;28;20048;-66
2022/09/04 04:42:17;;;;;;;10.60;1.85;;;;;;;26.96;44.57;100889.09;5120552;28;20089;-67
2022/09/04 04:48:42;;;;;;;2.27;1.27;;;;;;;26.94;43.34;100885.66;5121653;28;20114;-67
2022/09/04 04:52:01;;;;;;;14.37;2.10;;;;;;;26.88;44.25;100886.09;5121536;28;20081;-67
2022/09/04 04:54:57;;;;;;;3.37;1.83;;;;;;;26.75;46.72;100879.97;5094216;28;20283;-67
2022/09/04 04:58:39;;;;;;;5.30;2.33;;;;;;;26.67;47.28;100878.69;5119824;28;20062;-68
2022/09/04 05:01:34;;;;;;;6.83;1.93;;;;;;;26.76;47.92;100882.53;5112831;28;20051;-66
2022/09/04 05:04:37;;;;;;;10.73;2.40;;;;;;;26.74;47.75;100894.34;5121503;28;20051;-68
2022/09/04 05:07:25;;;;;;;6.30;2.97;;;;;;;26.79;48.88;100881.44;5121031;28;20062;-67
2022/09/04 05:10:14;;;;;;;11.03;3.47;;;;;;;26.83;50.09;100890.94;5121582;28;20356;-66
2022/09/04 05:13:14;;;;;;;5.30;1.70;;;;;;;26.81;49.68;100898.25;5121484;28;20247;-67
2022/09/04 05:15:59;;;;;;;5.27;1.50;;;;;;;26.79;50.09;100898.38;5121742;28;20097;-67
2022/09/04 05:18:58;;;;;;;4.27;1.80;;;;;;;26.68;50.91;100907.22;5120859;28;20052;-67
2022/09/04 05:21:54;;;;;;;4.53;1.60;;;;;;;26.49;51.23;100885.41;5093892;28;20051;-68
2022/09/04 05:24:43;;;;;;;13.67;1.77;;;;;;;26.49;52.35;100896.13;5121838;28;20110;-67
2022/09/04 05:27:55;;;;;;;7.07;1.67;;;;;;;26.33;52.08;100872.25;5121061;28;20044;-69
2022/09/04 05:30:53;;;;;;;5.57;1.27;;;;;;;26.41;52.76;100893.13;5121132;28;20063;-68
2022/09/04 05:33:43;;;;;;;3.90;1.17;;;;;;;26.34;52.53;100894.56;5120576;28;20087;-66
2022/09/04 05:36:26;;;;;;;9.33;1.70;;;;;;;26.28;52.89;100895.84;5076863;28;20317;-68
2022/09/04 05:39:23;;;;;;;8.33;1.30;;;;;;;26.27;53.63;100898.66;5121017;28;20085;-68
2022/09/04 05:42:27;;;;;;;12.83;2.17;;;;;;;26.18;53.93;100892.97;5120585;28;20067;-68
2022/09/04 05:45:16;;;;;;;13.80;1.87;;;;;;;26.15;54.91;100908.41;5120774;28;20432;-67
2022/09/04 05:48:23;;;;;;;5.80;1.50;;;;;;;25.67;55.42;100849.31;5120738;28;20036;-67
2022/09/04 05:51:31;;;;;;;3.40;1.47;;;;;;;26.02;55.83;100924.50;5121156;28;20050;-68
2022/09/04 05:54:58;;;;;;;2.50;1.20;;;;;;;25.87;55.47;100931.78;5120945;28;20055;-67
2022/09/04 05:57:49;;;;;;;10.70;1.80;;;;;;;25.80;56.27;100919.75;5120615;28;20039;-67
2022/09/04 06:00:46;;;;;;;14.93;1.80;;;;;;;25.16;56.59;100842.06;5120714;28;20052;-66
2022/09/04 06:06:49;;;;;;;10.83;6.37;;;;;;;25.46;58.43;100947.97;5111380;28;20109;-66
2022/09/04 06:09:47;;;;;;;7.33;1.70;;;;;;;25.37;58.94;100947.66;5124603;28;20119;-68
2022/09/04 06:12:34;;;;;;;7.53;2.42;;;;;;;25.25;60.20;100945.78;5124350;28;20175;-68
2022/09/04 06:15:47;;;;;;;7.00;2.47;;;;;;;25.07;60.58;100957.69;5124050;28;20122;-66
2022/09/04 06:22:18;;;;;;;47.93;7.73;;;;;;;24.65;62.59;100963.06;5111535;28;20051;-66
2022/09/04 06:25:37;;;;;;;3.63;2.23;;;;;;;24.56;62.45;100952.09;5081010;28;20642;-69
2022/09/04 06:28:48;;;;;;;14.70;3.33;;;;;;;24.25;63.34;100921.97;5112188;28;20039;-66
2022/09/04 06:31:52;;;;;;;12.33;2.23;;;;;;;24.30;63.63;100962.59;5058242;28;20062;-65
2022/09/04 06:40:46;;;;;;;4.77;1.27;;;;;;;24.16;65.00;100978.63;5108880;28;20056;-65
2022/09/04 06:43:36;;;;;;;5.37;1.33;;;;;;;24.15;65.01;100984.94;5052956;28;20092;-65
2022/09/04 06:46:29;;;;;;;8.13;1.47;;;;;;;24.08;65.45;100969.25;5101200;28;20072;-66
2022/09/04 06:49:21;;;;;;;11.03;2.30;;;;;;;24.16;65.40;100966.13;5104019;28;20537;-66
2022/09/04 06:52:22;;;;;;;6.30;1.20;;;;;;;24.15;64.60;100963.56;5103122;28;20090;-68
2022/09/04 06:55:11;;;;;;;7.57;2.10;;;;;;;24.13;64.42;100970.81;5102600;28;20108;-66
2022/09/04 06:58:43;;;;;;;5.90;1.27;;;;;;;24.01;64.63;100973.28;5102081;28;20353;-66
2022/09/04 07:01:33;;;;;;;6.97;1.77;;;;;;;23.87;64.78;100960.78;5039644;28;20131;-67
2022/09/04 07:04:27;;;;;;;7.13;1.50;;;;;;;23.80;64.96;100958.56;5114047;28;20095;-66
2022/09/04 07:07:30;;;;;;;7.33;1.53;;;;;;;23.64;65.33;100954.13;5080643;28;20058;-66
2022/09/04 07:10:15;;;;;;;5.33;1.30;;;;;;;23.51;65.85;100947.81;5113290;28;20056;-65
2022/09/04 07:13:36;;;;;;;24.37;2.30;;;;;;;23.54;66.58;100957.44;5113500;28;20055;-66
2022/09/04 07:17:04;;;;;;;7.80;1.70;;;;;;;23.44;66.81;100957.16;5114119;28;20060;-65
2022/09/04 07:20:23;;;;;;;7.37;1.70;;;;;;;23.29;66.67;100963.34;5111395;28;20319;-65
2022/09/04 07:26:33;;;;;;;8.20;1.60;;;;;;;23.14;67.55;100960.66;4991027;28;20392;-66
2022/09/04 07:29:44;;;;;;;16.60;2.08;;;;;;;23.14;67.02;100960.66;4991506;28;20073;-65
2022/09/04 07:32:35;;;;;;;12.27;4.90;;;;;;;23.05;66.52;100961.19;4991499;28;20155;-66
2022/09/04 07:35:21;;;;;;;15.97;2.60;;;;;;;22.94;67.06;100958.22;4991964;28;20054;-66
2022/09/04 07:38:08;;;;;;;37.67;3.80;;;;;;;22.86;66.83;100960.47;4990431;28;20043;-66
2022/09/04 07:40:53;;;;;;;6.80;1.80;;;;;;;22.90;67.15;100967.34;4989615;28;20315;-66
2022/09/04 07:43:49;;;;;;;7.70;2.77;;;;;;;22.77;66.74;100957.38;4999593;28;20060;-66
2022/09/04 07:49:58;;;;;;;26.70;4.43;;;;;;;22.79;65.62;100966.16;5000853;28;20038;-65
2022/09/04 07:53:09;;;;;;;5.47;2.10;;;;;;;22.78;65.57;100974.22;4999426;28;20042;-65
2022/09/04 07:55:53;;;;;;;7.57;2.03;;;;;;;22.62;64.78;100968.91;5000179;28;20112;-65
2022/09/04 07:59:29;;;;;;;20.27;3.27;;;;;;;22.61;65.00;100972.50;5012131;28;20306;-65
2022/09/04 08:02:30;;;;;;;22.63;3.70;;;;;;;22.58;64.98;100970.00;5067709;28;20057;-65
2022/09/04 08:05:40;;;;;;;25.03;3.30;;;;;;;22.53;64.79;100980.91;5068624;28;20191;-66
2022/09/04 08:08:54;;;;;;;32.17;3.43;;;;;;;22.47;65.06;100985.72;5068726;28;20130;-66
2022/09/04 08:12:13;;;;;;;20.47;3.37;;;;;;;22.39;65.51;100988.81;5068004;28;20118;-64
2022/09/04 08:15:02;;;;;;;14.83;2.33;;;;;;;22.30;65.50;100984.81;5068780;28;20068;-67
2022/09/04 08:18:04;;;;;;;25.85;3.08;;;;;;;22.24;65.82;100985.16;5067033;28;20048;-66
2022/09/04 08:20:51;;;;;;;19.13;3.30;;;;;;;22.12;66.20;100975.16;5066259;28;20082;-66
2022/09/04 08:24:20;;;;;;;16.17;2.37;;;;;;;22.05;66.69;100979.06;5067287;28;20052;-67
2022/09/04 08:27:22;;;;;;;13.13;1.90;;;;;;;22.01;67.44;100988.16;5066413;28;20052;-66
2022/09/04 08:30:19;;;;;;;10.93;1.60;;;;;;;21.98;67.62;100990.03;5100495;28;20107;-65
2022/09/04 08:33:35;;;;;;;52.17;5.50;;;;;;;21.92;67.59;100985.03;5098235;28;20070;-65
2022/09/04 08:36:22;;;;;;;14.23;4.50;;;;;;;21.86;68.38;100995.97;5119299;28;20078;-65
2022/09/04 08:39:31;;;;;;;16.47;3.60;;;;;;;21.60;69.01;100961.91;5121427;28;20328;-66
2022/09/04 08:42:49;;;;;;;48.37;6.80;;;;;;;21.60;69.11;100993.81;5121577;28;20064;-66
2022/09/04 08:46:16;;;;;;;43.13;7.23;;;;;;;21.44;69.97;100988.38;5077841;28;20290;-66
2022/09/04 08:49:47;;;;;;;45.37;4.00;;;;;;;21.19;71.11;100999.34;5028903;28;20060;-66
2022/09/04 08:53:13;;;;;;;29.80;3.10;;;;;;;20.88;72.41;100984.91;5028454;28;20050;-65
2022/09/04 08:56:21;;;;;;;31.40;5.30;;;;;;;20.61;74.34;100993.22;5012661;28;20076;-65
2022/09/04 08:59:40;;;;;;;45.70;10.00;;;;;;;20.38;76.15;100988.09;5028602;28;20054;-67
2022/09/04 09:02:46;;;;;;;39.90;10.40;;;;;;;20.15;77.46;100992.66;5029302;28;20385;-67
2022/09/04 09:06:06;;;;;;;43.03;10.20;;;;;;;19.94;78.39;100990.94;5027228;28;20292;-66
2022/09/04 09:09:13;;;;;;;79.60;6.80;;;;;;;19.80;79.45;100999.50;5028689;28;20281;-65
2022/09/04 09:12:27;;;;;;;20.30;4.40;;;;;;;19.60;80.46;100995.03;5009072;28;20113;-66
2022/09/04 09:16:05;;;;;;;48.87;4.90;;;;;;;19.42;81.16;101003.72;5027488;28;20788;-66
2022/09/04 09:19:15;;;;;;;5.43;1.77;;;;;;;19.20;81.51;101001.97;4938919;28;20304;-65
2022/09/04 09:22:16;;;;;;;32.13;3.53;;;;;;;18.92;82.06;100995.13;5035274;28;20381;-66
2022/09/04 09:25:26;;;;;;;12.17;2.00;;;;;;;18.73;82.56;100999.38;5007559;28;20328;-65
2022/09/04 09:28:42;;;;;;;24.40;2.77;;;;;;;18.53;83.21;101008.94;5037198;28;20570;-65
2022/09/04 09:32:01;;;;;;;21.50;3.13;;;;;;;18.31;83.20;100997.41;5038549;28;20296;-65
2022/09/04 09:35:10;;;;;;;23.50;10.50;;;;;;;18.10;83.58;100999.94;4979828;28;20314;-65
2022/09/04 09:38:30;;;;;;;27.93;4.97;;;;;;;17.98;83.99;100999.50;4979972;28;20378;-65
2022/09/04 09:41:50;;;;;;;17.30;3.53;;;;;;;17.91;84.36;100990.91;4979484;28;20290;-65
2022/09/04 09:45:13;;;;;;;22.97;3.50;;;;;;;17.88;84.13;100991.03;4937304;28;20468;-64
2022/09/04 09:52:13;;;;;;;24.43;3.50;;;;;;;17.72;84.19;100992.44;4957932;28;20293;-64
2022/09/04 09:55:52;;;;;;;7.63;2.57;;;;;;;17.56;84.40;100992.97;4954500;29;20341;-64
2022/09/04 09:59:03;;;;;;;15.80;4.27;;;;;;;17.44;84.74;100993.38;4880872;29;20414;-64
2022/09/04 10:06:58;;;;;;;27.73;11.27;;;;;;;17.17;85.94;101001.31;4796334;29;20647;-64
2022/09/04 10:10:35;;;;;;;16.90;7.15;;;;;;;16.96;85.99;100970.28;4796166;29;20300;-64
2022/09/04 10:14:05;;;;;;;16.83;9.57;;;;;;;16.98;86.74;100998.38;4832156;29;20204;-64
2022/09/04 10:17:36;;;;;;;21.33;7.70;;;;;;;16.96;86.95;101012.53;4773749;30;20304;-64
2022/09/04 10:21:10;;;;;;;20.63;12.23;;;;;;;16.90;87.17;101024.16;4813533;29;20311;-63
2022/09/04 10:24:22;;;;;;;32.20;22.73;;;;;;;16.78;87.40;101029.78;4806119;29;20309;-63
2022/09/04 10:27:51;;;;;;;50.15;23.40;;;;;;;16.73;87.89;101037.81;4843655;29;20614;-64
2022/09/04 10:31:12;;;;;;;22.00;9.23;;;;;;;16.58;88.21;101017.16;4818578;29;20058;-64
2022/09/04 10:37:33;;;;;;;40.40;4.23;;;;;;;16.07;87.80;100946.50;4994880;28;20613;-64
2022/09/04 10:40:46;;;;;;;22.33;2.95;;;;;;;16.61;88.14;101048.72;5011036;28;20297;-64
2022/09/04 10:44:02;;;;;;;11.93;2.30;;;;;;;16.49;88.29;101049.91;5006016;28;20093;-64
2022/09/04 10:47:09;;;;;;;10.83;2.07;;;;;;;16.43;88.32;101049.25;5001307;28;20354;-64
2022/09/04 10:50:03;;;;;;;14.40;2.73;;;;;;;16.30;88.57;101049.59;5001990;28;20599;-64
2022/09/04 10:53:04;;;;;;;12.53;2.50;;;;;;;16.19;88.86;101054.28;5000944;28;20347;-64
2022/09/04 10:56:08;;;;;;;7.23;2.27;;;;;;;16.08;89.63;101043.16;5018442;28;20280;-65
2022/09/04 10:59:01;;;;;;;23.60;2.93;;;;;;;16.05;90.11;101043.22;5037054;28;20307;-65
2022/09/04 11:02:31;;;;;;;9.80;2.50;;;;;;;15.96;90.30;101034.66;5038360;28;20376;-64
2022/09/04 11:09:03;;;;;;;5.57;1.90;;;;;;;16.00;90.71;101026.66;5103387;28;20294;-64
2022/09/04 11:12:16;;;;;;;11.03;2.00;;;;;;;15.99;90.73;101035.50;5103129;28;20591;-64
2022/09/04 11:15:28;;;;;;;6.90;1.83;;;;;;;15.93;90.77;101040.03;5102300;28;20551;-64
2022/09/04 11:18:39;;;;;;;12.07;5.50;;;;;;;15.88;90.76;101036.66;5102937;28;20297;-63
2022/09/04 11:25:37;;;;;;;34.77;24.63;;;;;;;15.68;91.39;101034.50;5081624;28;20310;-63
2022/09/04 11:28:50;;;;;;;28.30;20.90;;;;;;;15.57;92.03;101040.91;5012782;28;20279;-63
2022/09/04 11:32:22;;;;;;;12.93;7.93;;;;;;;15.53;92.41;101041.00;5060633;28;20307;-64
2022/09/04 11:35:48;;;;;;;9.87;4.03;;;;;;;15.50;92.67;101046.34;5036879;28;20341;-64
2022/09/04 11:38:42;;;;;;;48.27;34.83;;;;;;;15.41;93.10;101046.56;5000144;28;20294;-64
2022/09/04 11:41:57;;;;;;;23.37;17.83;;;;;;;15.36;93.41;101044.94;5000821;28;20353;-62
2022/09/04 11:45:15;;;;;;;56.97;47.00;;;;;;;15.30;93.63;101048.56;4999661;28;20372;-62
2022/09/04 11:48:30;;;;;;;17.70;13.33;;;;;;;15.22;93.83;101045.25;5000779;28;20665;-62
2022/09/04 11:51:50;;;;;;;19.23;13.47;;;;;;;15.31;93.92;101055.59;5000356;28;20289;-62
2022/09/04 11:54:49;;;;;;;13.27;4.88;;;;;;;15.33;93.52;101053.78;5000200;28;20301;-62
2022/09/04 11:57:54;;;;;;;15.60;10.80;;;;;;;15.34;93.03;101055.50;5000167;28;20132;-62
2022/09/04 12:00:58;;;;;;;11.07;8.03;;;;;;;15.32;92.69;101063.47;4971054;28;20293;-62
2022/09/04 12:04:25;;;;;;;;;;;;;;;;;;;;;
2022/09/04 12:07:22;;;;;;;9.07;3.10;;;;;;;15.26;92.56;101054.81;5059780;28;20302;-62
2022/09/04 12:10:42;;;;;;;24.15;14.68;;;;;;;15.12;92.88;101049.00;5080701;28;20291;-62
2022/09/04 12:14:04;;;;;;;17.23;11.73;;;;;;;14.96;93.35;101044.09;5076218;28;20305;-62
2022/09/04 12:17:18;;;;;;;20.97;14.50;;;;;;;14.95;93.52;101052.88;5081691;28;20464;-62
2022/09/04 12:20:50;;;;;;;17.87;9.93;;;;;;;14.96;93.81;101041.44;5076306;28;20282;-63
2022/09/04 12:23:58;;;;;;;14.87;7.77;;;;;;;14.99;93.46;101032.63;5080206;28;20354;-63
2022/09/04 12:27:18;;;;;;;7.67;3.40;;;;;;;14.96;93.52;101027.44;5054360;28;20301;-63
2022/09/04 12:30:10;;;;;;;8.05;2.25;;;;;;;14.96;93.40;101023.03;5081290;28;20295;-63
2022/09/04 12:33:18;;;;;;;5.20;1.83;;;;;;;14.96;93.33;101024.81;5039063;28;20079;-63
2022/09/04 12:40:25;;;;;;;6.77;2.60;;;;;;;14.96;92.29;101025.66;5039540;28;20411;-63
2022/09/04 12:43:21;;;;;;;8.63;2.20;;;;;;;14.82;91.60;101019.84;4968210;28;20290;-63
2022/09/04 12:46:34;;;;;;;9.17;2.80;;;;;;;14.87;91.66;101044.28;4950189;28;20314;-63
2022/09/04 12:49:43;;;;;;;7.43;2.23;;;;;;;14.84;91.69;101039.09;4962542;28;20356;-63
2022/09/04 12:52:31;;;;;;;12.63;2.80;;;;;;;14.86;91.83;101042.56;4999143;28;20333;-62
2022/09/04 12:55:33;;;;;;;4.10;2.17;;;;;;;14.83;91.71;101042.63;4998261;28;20312;-63
2022/09/04 12:58:35;;;;;;;6.70;2.13;;;;;;;14.76;92.02;101036.63;4999880;28;20336;-62
2022/09/04 13:01:23;;;;;;;7.60;2.40;;;;;;;14.71;92.19;101040.25;4998774;28;20309;-62
2022/09/04 13:04:23;;;;;;;5.43;2.30;;;;;;;14.52;92.20;101032.69;4997663;28;20333;-63
2022/09/04 13:07:28;;;;;;;10.65;1.95;;;;;;;14.47;92.75;101034.56;4982551;28;20289;-65
2022/09/04 13:10:33;;;;;;;4.80;2.50;;;;;;;14.24;92.98;100985.94;5010759;28;20096;-62
2022/09/04 13:13:42;;;;;;;4.13;1.80;;;;;;;14.46;92.83;101019.69;5036344;28;20710;-63
2022/09/04 13:20:16;;;;;;;8.07;2.30;;;;;;;14.38;92.56;100997.94;5080853;28;20315;-63
2022/09/04 13:32:01;;;;;;;6.33;1.70;;;;;;;13.65;93.81;100947.66;4259696;27;25881152;-62
2022/09/04 13:35:12;;;;;;;9.30;2.20;;;;;;;14.08;94.09;101025.66;5126849;27;20058;-62
2022/09/04 13:38:18;;;;;;;9.65;2.08;;;;;;;14.07;94.57;101019.56;5179755;27;20291;-63
2022/09/04 13:41:32;;;;;;;6.13;1.88;;;;;;;14.09;94.79;101023.03;5180480;27;20638;-62
2022/09/04 13:44:44;;;;;;;5.68;2.10;;;;;;;14.11;94.26;101026.50;5178225;27;20051;-62
2022/09/04 13:47:25;;;;;;;7.38;1.70;;;;;;;14.03;94.44;101007.38;5155059;27;20046;-62
2022/09/04 13:50:16;;;;;;;6.00;1.67;;;;;;;14.09;94.17;101009.88;5179923;27;20058;-63
2022/09/04 13:53:01;;;;;;;9.60;1.90;;;;;;;14.13;94.00;101016.81;5179902;27;20060;-62
2022/09/04 13:55:44;;;;;;;6.05;1.92;;;;;;;14.11;93.64;101021.25;5179931;27;20106;-62
2022/09/04 13:58:45;;;;;;;8.93;1.85;;;;;;;14.05;93.34;101015.22;5180217;27;20085;-63
2022/09/04 14:01:28;;;;;;;5.03;1.60;;;;;;;13.99;92.91;101010.97;5180649;27;20715;-62
2022/09/04 14:07:16;;;;;;;4.40;1.73;;;;;;;14.01;92.50;101019.69;5179788;27;20348;-63
2022/09/04 14:10:00;;;;;;;5.10;1.77;;;;;;;13.61;92.39;100961.75;5149100;27;20228;-61
2022/09/04 14:13:05;;;;;;;7.15;1.85;;;;;;;13.97;92.15;101029.38;5180429;27;20122;-63
2022/09/04 14:16:05;;;;;;;5.93;1.67;;;;;;;13.93;92.10;101024.22;5177275;27;20074;-62
2022/09/04 14:18:54;;;;;;;;;;;;;;;13.91;92.13;101023.38;5178522;27;20203;-63
2022/09/04 14:22:09;;;;;;;4.15;1.60;;;;;;;13.88;92.27;101018.16;5176988;27;19933;-63
2022/09/04 14:25:13;;;;;;;7.28;1.60;;;;;;;13.80;92.49;101021.81;5177894;27;20058;-62
2022/09/04 14:28:09;;;;;;;2.83;1.85;;;;;;;13.75;92.81;101017.50;5176323;27;20069;-62
2022/09/04 14:31:05;;;;;;;6.80;2.17;;;;;;;13.71;92.64;101021.97;5180414;27;20076;-63
2022/09/04 14:33:56;;;;;;;6.60;1.90;;;;;;;13.66;92.73;101018.53;5121386;27;20122;-62
2022/09/04 14:36:54;;;;;;;6.70;2.00;;;;;;;13.68;92.96;101021.13;5178292;27;20472;-63
2022/09/04 14:39:46;;;;;;;6.47;1.98;;;;;;;13.54;92.70;101013.50;5179262;27;20170;-62
2022/09/04 14:43:02;;;;;;;5.03;1.40;;;;;;;13.67;92.46;101036.03;5167629;27;20053;-63
2022/09/04 14:46:06;;;;;;;6.50;2.30;;;;;;;13.64;92.01;101035.22;5164464;27;20042;-63
2022/09/04 14:49:02;;;;;;;6.30;1.90;;;;;;;13.63;92.04;101023.84;5118509;27;20051;-63
2022/09/04 14:51:49;;;;;;;7.93;2.25;;;;;;;13.71;92.34;101037.72;5165351;27;20053;-63
2022/09/04 14:54:42;;;;;;;4.80;1.85;;;;;;;13.73;92.60;101035.09;5163817;27;20068;-63
2022/09/04 14:57:33;;;;;;;4.72;1.73;;;;;;;13.79;93.49;101030.56;5126377;27;20107;-63
2022/09/04 15:00:13;;;;;;;3.15;1.60;;;;;;;13.73;93.51;101028.06;5164813;27;20078;-64
2022/09/04 15:03:08;;;;;;;4.13;1.65;;;;;;;13.78;93.77;101034.09;5164070;27;20066;-62
2022/09/04 15:05:54;;;;;;;4.00;1.73;;;;;;;13.67;93.94;101029.91;5164054;27;20197;-63
2022/09/04 15:08:44;;;;;;;5.75;1.85;;;;;;;13.74;94.15;101042.91;5164392;27;20117;-63
2022/09/04 15:11:44;;;;;;;6.13;1.77;;;;;;;13.71;94.47;101042.97;5163169;27;20086;-63
2022/09/04 15:17:34;;;;;;;7.18;2.17;;;;;;;13.84;95.44;101046.25;5166218;27;20084;-63
2022/09/04 15:20:30;;;;;;;5.35;1.60;;;;;;;13.94;95.00;101039.06;5166781;27;20046;-63
2022/09/04 15:23:16;;;;;;;6.03;1.90;;;;;;;13.89;94.99;101030.41;5165666;27;20058;-64